createdAt,value
2019-05-13T00:00:57.116Z,0.00
2019-05-13T00:01:57.101Z,0.00
2019-05-13T00:02:57.140Z,0.00
2019-05-13T00:03:57.080Z,0.00
2019-05-13T00:04:57.069Z,0.00
2019-05-13T00:05:57.059Z,0.00
2019-05-13T00:06:57.862Z,0.00
2019-05-13T00:07:57.036Z,0.00
2019-05-13T00:08:57.175Z,0.00
2019-05-13T00:09:57.015Z,0.00
2019-05-13T00:10:57.002Z,0.00
2019-05-13T00:11:56.999Z,0.00
2019-05-13T00:12:56.985Z,0.00
2019-05-13T00:13:56.973Z,0.00
2019-05-13T00:14:57.012Z,0.00
2019-05-13T00:15:56.950Z,0.00
2019-05-13T00:16:56.940Z,0.00
2019-05-13T00:17:56.927Z,5.62
2019-05-13T00:18:56.917Z,5.62
2019-05-13T00:19:56.958Z,5.62
2019-05-13T00:20:56.896Z,5.62
2019-05-13T00:21:56.885Z,5.62
2019-05-13T00:22:56.873Z,5.62
2019-05-13T00:23:56.863Z,5.62
2019-05-13T00:24:56.854Z,5.62
2019-05-13T00:25:56.892Z,5.62
2019-05-13T00:26:56.831Z,11.25
2019-05-13T00:27:56.817Z,11.25
2019-05-13T00:28:56.807Z,11.25
2019-05-13T00:29:56.795Z,11.25
2019-05-13T00:30:56.786Z,11.25
2019-05-13T00:31:56.930Z,11.25
2019-05-13T00:32:56.766Z,11.25
2019-05-13T00:33:56.754Z,16.87
2019-05-13T00:34:56.745Z,16.87
2019-05-13T00:35:56.732Z,16.87
2019-05-13T00:37:07.816Z,22.50
2019-05-13T00:38:21.573Z,22.50
2019-05-13T00:39:21.564Z,22.50
2019-05-13T00:40:23.702Z,22.50
2019-05-13T00:41:21.540Z,22.50
2019-05-13T00:42:21.529Z,22.50
2019-05-13T00:43:21.568Z,22.50
2019-05-13T00:44:21.506Z,22.50
2019-05-13T00:45:21.498Z,22.50
2019-05-13T00:46:23.602Z,28.12
2019-05-13T00:47:23.571Z,28.12
2019-05-13T00:48:23.325Z,28.12
2019-05-13T00:49:23.799Z,28.12
2019-05-13T00:50:21.444Z,28.12
2019-05-13T00:51:21.433Z,33.75
2019-05-13T00:52:23.473Z,33.75
2019-05-13T00:53:23.618Z,39.37
2019-05-13T00:54:23.537Z,39.37
2019-05-13T00:55:23.643Z,39.37
2019-05-13T00:56:23.659Z,39.37
2019-05-13T00:57:23.696Z,45.00
2019-05-13T00:58:21.357Z,45.00
2019-05-13T00:59:21.347Z,45.00
2019-05-13T01:00:21.337Z,45.00
2019-05-13T01:01:21.376Z,45.00
2019-05-13T01:02:21.314Z,50.62
2019-05-13T01:03:21.305Z,50.62
2019-05-13T01:04:23.223Z,50.62
2019-05-13T01:05:23.302Z,56.25
2019-05-13T01:06:23.627Z,56.25
2019-05-13T01:07:28.337Z,61.87
2019-05-13T01:08:46.061Z,67.50
2019-05-13T01:09:46.054Z,67.50
2019-05-13T01:10:46.041Z,73.12
2019-05-13T01:11:46.029Z,73.12
2019-05-13T01:12:46.120Z,78.75
2019-05-13T01:13:46.007Z,78.75
2019-05-13T01:14:45.996Z,84.37
2019-05-13T01:15:45.988Z,84.37
2019-05-13T01:16:45.975Z,90.00
2019-05-13T01:17:45.964Z,95.62
2019-05-13T01:18:46.004Z,95.62
2019-05-13T01:19:45.944Z,101.25
2019-05-13T01:20:45.933Z,101.25
2019-05-13T01:21:45.923Z,106.87
2019-05-13T01:22:45.910Z,112.50
2019-05-13T01:23:45.900Z,118.12
2019-05-13T01:24:46.039Z,129.37
2019-05-13T01:25:45.880Z,135.00
2019-05-13T01:26:45.869Z,146.25
2019-05-13T01:27:45.859Z,151.87
2019-05-13T01:28:45.847Z,163.12
2019-05-13T01:29:45.837Z,174.37
2019-05-13T01:30:45.927Z,185.62
2019-05-13T01:31:45.814Z,202.50
2019-05-13T01:32:45.805Z,196.87
2019-05-13T01:33:45.791Z,202.50
2019-05-13T01:34:45.784Z,196.87
2019-05-13T01:35:45.770Z,213.75
2019-05-13T01:36:45.809Z,185.62
2019-05-13T01:37:46.335Z,174.37
2019-05-13T01:38:45.765Z,163.12
2019-05-13T01:39:45.726Z,151.87
2019-05-13T01:40:45.719Z,146.25
2019-05-13T01:41:45.707Z,146.25
2019-05-13T01:42:45.847Z,146.25
2019-05-13T01:43:45.686Z,146.25
2019-05-13T01:44:45.674Z,146.25
2019-05-13T01:45:45.663Z,146.25
2019-05-13T01:46:45.656Z,146.25
2019-05-13T01:47:45.643Z,146.25
2019-05-13T01:48:45.736Z,146.25
2019-05-13T01:49:45.621Z,146.25
2019-05-13T01:50:45.608Z,151.87
2019-05-13T01:51:45.601Z,157.50
2019-05-13T01:52:45.589Z,163.12
2019-05-13T01:53:45.580Z,163.12
2019-05-13T01:54:45.670Z,163.12
2019-05-13T01:55:45.558Z,168.75
2019-05-13T01:56:45.549Z,174.37
2019-05-13T01:57:45.535Z,180.00
2019-05-13T01:58:45.525Z,191.25
2019-05-13T01:59:45.514Z,202.50
2019-05-13T02:00:45.654Z,213.75
2019-05-13T02:01:45.499Z,219.37
2019-05-13T02:02:45.482Z,225.00
2019-05-13T02:03:45.473Z,230.62
2019-05-13T02:04:45.460Z,236.25
2019-05-13T02:05:45.450Z,236.25
2019-05-13T02:06:45.489Z,241.87
2019-05-13T02:07:56.872Z,230.62
2019-05-13T02:09:10.235Z,219.37
2019-05-13T02:10:10.219Z,208.12
2019-05-13T02:11:10.211Z,208.12
2019-05-13T02:12:10.303Z,213.75
2019-05-13T02:13:10.191Z,219.37
2019-05-13T02:14:10.180Z,230.62
2019-05-13T02:15:10.166Z,241.87
2019-05-13T02:16:10.156Z,253.12
2019-05-13T02:17:10.145Z,264.37
2019-05-13T02:18:10.385Z,264.37
2019-05-13T02:19:10.126Z,258.75
2019-05-13T02:20:10.117Z,253.12
2019-05-13T02:21:10.097Z,247.50
2019-05-13T02:22:10.100Z,247.50
2019-05-13T02:23:10.078Z,247.50
2019-05-13T02:24:10.116Z,247.50
2019-05-13T02:25:10.061Z,241.87
2019-05-13T02:26:10.046Z,236.25
2019-05-13T02:27:10.034Z,236.25
2019-05-13T02:28:10.739Z,236.25
2019-05-13T02:29:10.013Z,309.37
2019-05-13T02:30:10.054Z,208.12
2019-05-13T02:31:13.795Z,202.50
2019-05-13T02:32:34.795Z,196.87
2019-05-13T02:33:34.783Z,196.87
2019-05-13T02:34:34.775Z,213.75
2019-05-13T02:35:34.914Z,163.12
2019-05-13T02:36:34.762Z,157.50
2019-05-13T02:37:34.745Z,163.12
2019-05-13T02:38:35.834Z,163.12
2019-05-13T02:39:34.719Z,168.75
2019-05-13T02:40:34.709Z,174.37
2019-05-13T02:41:34.761Z,180.00
2019-05-13T02:42:34.688Z,174.37
2019-05-13T02:43:34.675Z,180.00
2019-05-13T02:44:34.665Z,180.00
2019-05-13T02:45:34.659Z,180.00
2019-05-13T02:46:34.642Z,174.37
2019-05-13T02:47:34.684Z,174.37
2019-05-13T02:48:34.623Z,174.37
2019-05-13T02:49:34.613Z,174.37
2019-05-13T02:50:34.601Z,174.37
2019-05-13T02:51:34.590Z,180.00
2019-05-13T02:52:34.583Z,185.62
2019-05-13T02:53:34.822Z,191.25
2019-05-13T02:54:34.687Z,196.87
2019-05-13T02:55:34.545Z,202.50
2019-05-13T02:56:34.537Z,213.75
2019-05-13T02:57:34.560Z,219.37
2019-05-13T02:58:34.515Z,225.00
2019-05-13T02:59:34.567Z,230.62
2019-05-13T03:00:34.497Z,241.87
2019-05-13T03:01:34.488Z,247.50
2019-05-13T03:02:34.473Z,258.75
2019-05-13T03:03:34.461Z,270.00
2019-05-13T03:04:34.451Z,281.25
2019-05-13T03:05:34.488Z,298.12
2019-05-13T03:06:34.428Z,315.00
2019-05-13T03:07:34.420Z,337.50
2019-05-13T03:08:44.612Z,360.00
2019-05-13T03:09:59.211Z,399.37
2019-05-13T03:11:02.682Z,596.25
2019-05-13T03:11:59.191Z,1170.00
2019-05-13T03:12:59.181Z,1271.25
2019-05-13T03:13:59.168Z,1113.75
2019-05-13T03:15:02.475Z,573.75
2019-05-13T03:16:02.550Z,585.00
2019-05-13T03:17:02.757Z,635.62
2019-05-13T03:17:59.126Z,635.62
2019-05-13T03:18:59.118Z,1170.00
2019-05-13T03:19:59.105Z,1305.00
2019-05-13T03:20:59.093Z,1715.62
2019-05-13T03:22:02.636Z,1822.50
2019-05-13T03:23:02.793Z,1710.00
2019-05-13T03:24:03.030Z,1580.62
2019-05-13T03:25:02.822Z,1575.00
2019-05-13T03:26:02.485Z,1620.00
2019-05-13T03:27:02.246Z,1620.00
2019-05-13T03:28:02.789Z,1524.37
2019-05-13T03:29:02.525Z,669.37
2019-05-13T03:30:03.800Z,832.50
2019-05-13T03:31:05.466Z,573.75
2019-05-13T03:32:26.765Z,528.75
2019-05-13T03:33:48.597Z,523.12
2019-05-13T03:34:48.687Z,517.50
2019-05-13T03:35:48.582Z,517.50
2019-05-13T03:36:48.566Z,630.00
2019-05-13T03:37:48.555Z,1631.25
2019-05-13T03:39:01.561Z,1552.50
2019-05-13T03:40:13.638Z,1608.75
2019-05-13T03:41:13.389Z,1113.75
2019-05-13T03:42:13.387Z,680.62
2019-05-13T03:43:13.370Z,556.87
2019-05-13T03:44:13.883Z,540.00
2019-05-13T03:45:13.599Z,911.25
2019-05-13T03:46:13.342Z,534.37
2019-05-13T03:47:13.326Z,511.87
2019-05-13T03:48:13.332Z,500.62
2019-05-13T03:49:14.223Z,933.75
2019-05-13T03:50:13.305Z,1513.12
2019-05-13T03:51:13.873Z,1608.75
2019-05-13T03:52:13.693Z,1608.75
2019-05-13T03:53:13.382Z,1625.62
2019-05-13T03:54:13.295Z,1614.37
2019-05-13T03:55:13.333Z,1141.87
2019-05-13T03:56:13.476Z,945.00
2019-05-13T03:57:13.275Z,1473.75
2019-05-13T03:58:13.455Z,1541.25
2019-05-13T03:59:13.503Z,787.50
2019-05-13T04:00:13.538Z,804.37
2019-05-13T04:01:13.576Z,1507.50
2019-05-13T04:02:13.172Z,1518.75
2019-05-13T04:03:13.784Z,1468.12
2019-05-13T04:04:13.152Z,1164.37
2019-05-13T04:05:13.641Z,1316.25
2019-05-13T04:06:14.008Z,838.12
2019-05-13T04:07:13.225Z,1389.37
2019-05-13T04:08:13.447Z,1350.00
2019-05-13T04:09:25.188Z,1305.00
2019-05-13T04:10:14.177Z,1316.25
2019-05-13T04:11:13.085Z,1158.75
2019-05-13T04:12:13.645Z,939.37
2019-05-13T04:13:13.059Z,765.00
2019-05-13T04:15:13.132Z,613.12
2019-05-13T04:16:13.426Z,658.12
2019-05-13T04:17:13.011Z,675.00
2019-05-13T04:18:13.001Z,663.75
2019-05-13T04:19:12.998Z,641.25
2019-05-13T04:20:12.999Z,652.50
2019-05-13T04:21:13.621Z,573.75
2019-05-13T04:22:13.206Z,579.37
2019-05-13T04:23:13.112Z,590.62
2019-05-13T04:24:12.947Z,624.37
2019-05-13T04:25:12.980Z,556.87
2019-05-13T04:26:14.690Z,528.75
2019-05-13T04:27:13.443Z,517.50
2019-05-13T04:28:13.573Z,517.50
2019-05-13T04:29:13.419Z,517.50
2019-05-13T04:30:13.583Z,523.12
2019-05-13T04:31:14.253Z,506.25
2019-05-13T04:32:13.209Z,489.37
2019-05-13T04:33:13.893Z,483.75
2019-05-13T04:34:12.841Z,483.75
2019-05-13T04:35:12.826Z,483.75
2019-05-13T04:36:13.616Z,489.37
2019-05-13T04:37:13.395Z,489.37
2019-05-13T04:38:13.329Z,523.12
2019-05-13T04:39:13.122Z,590.62
2019-05-13T04:40:12.928Z,585.00
2019-05-13T04:41:12.766Z,579.37
2019-05-13T04:42:12.747Z,573.75
2019-05-13T04:43:13.141Z,568.12
2019-05-13T04:44:13.243Z,551.25
2019-05-13T04:45:13.548Z,540.00
2019-05-13T04:46:15.325Z,534.37
2019-05-13T04:47:12.972Z,528.75
2019-05-13T04:48:13.031Z,528.75
2019-05-13T04:49:12.765Z,523.12
2019-05-13T04:50:12.949Z,517.50
2019-05-13T04:51:13.861Z,523.12
2019-05-13T04:52:13.443Z,517.50
2019-05-13T04:53:13.617Z,517.50
2019-05-13T04:54:13.189Z,517.50
2019-05-13T04:55:13.306Z,517.50
2019-05-13T04:56:13.716Z,523.12
2019-05-13T04:57:12.643Z,517.50
2019-05-13T04:58:13.134Z,528.75
2019-05-13T04:59:12.763Z,528.75
2019-05-13T05:00:13.068Z,511.87
2019-05-13T05:01:14.167Z,511.87
2019-05-13T05:02:13.468Z,500.62
2019-05-13T05:03:13.616Z,517.50
2019-05-13T05:04:22.594Z,511.87
2019-05-13T05:05:42.091Z,540.00
2019-05-13T05:06:42.394Z,556.87
2019-05-13T05:07:42.004Z,573.75
2019-05-13T05:08:42.122Z,590.62
2019-05-13T05:10:02.801Z,601.87
2019-05-13T05:10:42.842Z,590.62
2019-05-13T05:11:42.566Z,573.75
2019-05-13T05:12:42.518Z,596.25
2019-05-13T05:13:42.791Z,556.87
2019-05-13T05:14:41.802Z,590.62
2019-05-13T05:15:41.737Z,568.12
2019-05-13T05:16:44.070Z,545.62
2019-05-13T05:17:42.794Z,523.12
2019-05-13T05:18:42.085Z,523.12
2019-05-13T05:19:44.967Z,517.50
2019-05-13T05:21:05.136Z,551.25
2019-05-13T05:22:05.133Z,556.87
2019-05-13T05:23:05.123Z,534.37
2019-05-13T05:24:05.105Z,495.00
2019-05-13T05:25:05.095Z,478.12
2019-05-13T05:26:05.133Z,466.87
2019-05-13T05:27:05.081Z,461.25
2019-05-13T05:28:05.072Z,461.25
2019-05-13T05:29:05.055Z,472.50
2019-05-13T05:30:05.042Z,478.12
2019-05-13T05:31:05.032Z,478.12
2019-05-13T05:32:05.124Z,466.87
2019-05-13T05:33:05.017Z,461.25
2019-05-13T05:34:06.796Z,461.25
2019-05-13T05:35:04.991Z,466.87
2019-05-13T05:36:04.990Z,495.00
2019-05-13T05:37:04.971Z,466.87
2019-05-13T05:38:05.013Z,495.00
2019-05-13T05:39:04.952Z,455.62
2019-05-13T05:40:04.938Z,438.75
2019-05-13T05:41:04.927Z,421.87
2019-05-13T05:42:04.920Z,416.25
2019-05-13T05:43:04.912Z,405.00
2019-05-13T05:44:04.946Z,399.37
2019-05-13T05:45:04.888Z,399.37
2019-05-13T05:46:04.877Z,405.00
2019-05-13T05:47:04.871Z,416.25
2019-05-13T05:48:04.857Z,410.62
2019-05-13T05:49:04.850Z,416.25
2019-05-13T05:50:04.942Z,410.62
2019-05-13T05:51:04.826Z,410.62
2019-05-13T05:52:04.814Z,410.62
2019-05-13T05:53:04.802Z,410.62
2019-05-13T05:54:04.816Z,410.62
2019-05-13T05:55:04.779Z,399.37
2019-05-13T05:56:04.822Z,393.75
2019-05-13T05:57:04.765Z,388.12
2019-05-13T05:58:04.750Z,371.25
2019-05-13T05:59:04.738Z,371.25
2019-05-13T06:00:04.730Z,365.62
2019-05-13T06:01:04.727Z,360.00
2019-05-13T06:02:04.756Z,354.37
2019-05-13T06:03:04.698Z,354.37
2019-05-13T06:04:04.684Z,360.00
2019-05-13T06:05:04.676Z,365.62
2019-05-13T06:06:04.660Z,365.62
2019-05-13T06:07:04.665Z,360.00
2019-05-13T06:08:04.688Z,354.37
2019-05-13T06:09:04.628Z,348.75
2019-05-13T06:10:04.617Z,343.12
2019-05-13T06:11:04.608Z,343.12
2019-05-13T06:12:04.596Z,337.50
2019-05-13T06:13:04.583Z,337.50
2019-05-13T06:14:04.675Z,337.50
2019-05-13T06:15:04.572Z,337.50
2019-05-13T06:16:04.551Z,337.50
2019-05-13T06:17:04.539Z,337.50
2019-05-13T06:18:04.530Z,337.50
2019-05-13T06:19:04.519Z,337.50
2019-05-13T06:20:04.757Z,337.50
2019-05-13T06:21:04.501Z,337.50
2019-05-13T06:22:04.487Z,337.50
2019-05-13T06:23:04.474Z,337.50
2019-05-13T06:24:04.499Z,343.12
2019-05-13T06:25:04.476Z,343.12
2019-05-13T06:26:04.502Z,337.50
2019-05-13T06:27:04.431Z,343.12
2019-05-13T06:28:04.419Z,348.75
2019-05-13T06:29:04.410Z,354.37
2019-05-13T06:30:04.413Z,354.37
2019-05-13T06:31:04.390Z,360.00
2019-05-13T06:32:18.244Z,354.37
2019-05-13T06:33:31.524Z,348.75
2019-05-13T06:34:29.171Z,343.12
2019-05-13T06:35:29.157Z,337.50
2019-05-13T06:36:31.463Z,331.87
2019-05-13T06:37:29.187Z,326.25
2019-05-13T06:38:31.447Z,320.62
2019-05-13T06:39:31.433Z,315.00
2019-05-13T06:40:29.106Z,315.00
2019-05-13T06:41:29.095Z,309.37
2019-05-13T06:42:29.085Z,303.75
2019-05-13T06:43:31.327Z,298.12
2019-05-13T06:44:31.403Z,298.12
2019-05-13T06:45:31.482Z,292.50
2019-05-13T06:46:29.041Z,286.87
2019-05-13T06:47:29.026Z,286.87
2019-05-13T06:48:29.019Z,281.25
2019-05-13T06:49:29.061Z,281.25
2019-05-13T06:50:28.997Z,281.25
2019-05-13T06:51:31.274Z,275.62
2019-05-13T06:52:29.002Z,275.62
2019-05-13T06:53:28.963Z,275.62
2019-05-13T06:54:28.957Z,275.62
2019-05-13T06:55:31.450Z,275.62
2019-05-13T06:56:28.940Z,275.62
2019-05-13T06:57:28.920Z,281.25
2019-05-13T06:58:28.909Z,281.25
2019-05-13T06:59:31.364Z,281.25
2019-05-13T07:00:28.893Z,281.25
2019-05-13T07:01:28.935Z,281.25
2019-05-13T07:02:28.868Z,281.25
2019-05-13T07:03:28.859Z,286.87
2019-05-13T07:04:28.844Z,292.50
2019-05-13T07:05:28.831Z,292.50
2019-05-13T07:06:28.823Z,298.12
2019-05-13T07:07:28.865Z,303.75
2019-05-13T07:08:31.261Z,315.00
2019-05-13T07:09:28.791Z,326.25
2019-05-13T07:10:28.777Z,343.12
2019-05-13T07:11:31.235Z,354.37
2019-05-13T07:12:31.029Z,365.62
2019-05-13T07:13:28.801Z,371.25
2019-05-13T07:14:28.736Z,376.87
2019-05-13T07:15:31.366Z,382.50
2019-05-13T07:16:28.714Z,388.12
2019-05-13T07:17:28.706Z,393.75
2019-05-13T07:18:28.696Z,388.12
2019-05-13T07:19:28.734Z,393.75
2019-05-13T07:20:28.680Z,393.75
2019-05-13T07:21:28.665Z,393.75
2019-05-13T07:22:31.949Z,399.37
2019-05-13T07:23:28.643Z,405.00
2019-05-13T07:24:28.628Z,405.00
2019-05-13T07:25:28.672Z,410.62
2019-05-13T07:26:28.616Z,405.00
2019-05-13T07:27:28.596Z,399.37
2019-05-13T07:28:28.586Z,393.75
2019-05-13T07:29:28.575Z,393.75
2019-05-13T07:30:28.564Z,388.12
2019-05-13T07:31:28.661Z,388.12
2019-05-13T07:32:28.545Z,388.12
2019-05-13T07:33:28.534Z,393.75
2019-05-13T07:34:28.520Z,393.75
2019-05-13T07:35:30.857Z,405.00
2019-05-13T07:36:53.363Z,410.62
2019-05-13T07:37:53.353Z,416.25
2019-05-13T07:38:53.344Z,427.50
2019-05-13T07:39:53.339Z,450.00
2019-05-13T07:40:53.324Z,466.87
2019-05-13T07:41:53.359Z,483.75
2019-05-13T07:42:53.304Z,478.12
2019-05-13T07:43:53.288Z,478.12
2019-05-13T07:44:53.276Z,472.50
2019-05-13T07:45:53.267Z,461.25
2019-05-13T07:46:53.259Z,455.62
2019-05-13T07:47:53.297Z,450.00
2019-05-13T07:48:53.235Z,444.37
2019-05-13T07:49:53.225Z,438.75
2019-05-13T07:51:00.117Z,433.12
2019-05-13T07:51:54.339Z,433.12
2019-05-13T07:52:53.191Z,433.12
2019-05-13T07:53:53.233Z,438.75
2019-05-13T07:54:53.172Z,444.37
2019-05-13T07:55:53.165Z,444.37
2019-05-13T07:56:53.150Z,444.37
2019-05-13T07:57:53.155Z,444.37
2019-05-13T07:58:53.130Z,444.37
2019-05-13T07:59:53.176Z,433.12
2019-05-13T08:00:53.109Z,433.12
2019-05-13T08:01:53.099Z,438.75
2019-05-13T08:02:53.089Z,444.37
2019-05-13T08:03:53.077Z,444.37
2019-05-13T08:04:53.359Z,455.62
2019-05-13T08:05:53.108Z,450.00
2019-05-13T08:06:53.077Z,450.00
2019-05-13T08:07:53.038Z,455.62
2019-05-13T08:08:53.026Z,466.87
2019-05-13T08:09:56.815Z,472.50
2019-05-13T08:11:17.868Z,489.37
2019-05-13T08:12:18.017Z,495.00
2019-05-13T08:13:17.842Z,506.25
2019-05-13T08:14:17.837Z,500.62
2019-05-13T08:15:17.826Z,506.25
2019-05-13T08:16:17.964Z,506.25
2019-05-13T08:17:17.813Z,511.87
2019-05-13T08:18:17.795Z,511.87
2019-05-13T08:19:17.781Z,506.25
2019-05-13T08:20:17.771Z,500.62
2019-05-13T08:21:17.761Z,500.62
2019-05-13T08:22:17.889Z,500.62
2019-05-13T08:23:17.745Z,500.62
2019-05-13T08:24:17.730Z,500.62
2019-05-13T08:25:17.721Z,495.00
2019-05-13T08:26:17.714Z,495.00
2019-05-13T08:27:24.037Z,489.37
2019-05-13T08:28:18.840Z,483.75
2019-05-13T08:29:17.680Z,483.75
2019-05-13T08:30:18.353Z,483.75
2019-05-13T08:31:17.664Z,483.75
2019-05-13T08:32:17.649Z,483.75
2019-05-13T08:33:17.637Z,483.75
2019-05-13T08:34:17.678Z,478.12
2019-05-13T08:35:17.618Z,472.50
2019-05-13T08:36:17.626Z,478.12
2019-05-13T08:37:17.596Z,478.12
2019-05-13T08:38:17.589Z,472.50
2019-05-13T08:39:17.575Z,472.50
2019-05-13T08:40:20.123Z,466.87
2019-05-13T08:41:19.355Z,466.87
2019-05-13T08:42:20.182Z,466.87
2019-05-13T08:43:17.540Z,472.50
2019-05-13T08:44:17.526Z,483.75
2019-05-13T08:45:17.515Z,478.12
2019-05-13T08:46:17.604Z,472.50
2019-05-13T08:47:17.492Z,466.87
2019-05-13T08:48:17.481Z,455.62
2019-05-13T08:49:17.471Z,427.50
2019-05-13T08:50:17.462Z,410.62
2019-05-13T08:51:17.453Z,399.37
2019-05-13T08:52:17.492Z,388.12
2019-05-13T08:53:17.429Z,382.50
2019-05-13T08:54:17.434Z,371.25
2019-05-13T08:55:17.413Z,354.37
2019-05-13T08:56:17.397Z,348.75
2019-05-13T08:57:17.390Z,343.12
2019-05-13T08:58:17.428Z,337.50
2019-05-13T08:59:17.369Z,337.50
2019-05-13T09:00:17.368Z,343.12
2019-05-13T09:01:17.350Z,348.75
2019-05-13T09:02:17.340Z,348.75
2019-05-13T09:03:17.326Z,348.75
2019-05-13T09:04:17.364Z,348.75
2019-05-13T09:05:17.307Z,354.37
2019-05-13T09:06:17.291Z,354.37
2019-05-13T09:07:20.917Z,354.37
2019-05-13T09:08:42.585Z,348.75
2019-05-13T09:09:42.243Z,348.75
2019-05-13T09:10:42.067Z,348.75
2019-05-13T09:11:42.362Z,337.50
2019-05-13T09:12:43.323Z,331.87
2019-05-13T09:13:42.457Z,315.00
2019-05-13T09:14:42.029Z,303.75
2019-05-13T09:15:42.317Z,292.50
2019-05-13T09:16:42.097Z,281.25
2019-05-13T09:17:42.560Z,275.62
2019-05-13T09:18:42.722Z,270.00
2019-05-13T09:19:41.975Z,270.00
2019-05-13T09:20:41.968Z,264.37
2019-05-13T09:21:42.505Z,258.75
2019-05-13T09:22:41.946Z,253.12
2019-05-13T09:23:41.930Z,253.12
2019-05-13T09:24:42.625Z,247.50
2019-05-13T09:25:41.917Z,247.50
2019-05-13T09:26:42.404Z,247.50
2019-05-13T09:27:42.593Z,247.50
2019-05-13T09:28:41.905Z,247.50
2019-05-13T09:29:42.859Z,247.50
2019-05-13T09:30:42.534Z,247.50
2019-05-13T09:31:41.853Z,247.50
2019-05-13T09:33:43.833Z,253.12
2019-05-13T09:34:42.369Z,253.12
2019-05-13T09:35:42.338Z,253.12
2019-05-13T09:36:42.018Z,253.12
2019-05-13T09:37:42.425Z,247.50
2019-05-13T09:38:42.012Z,247.50
2019-05-13T09:39:41.775Z,247.50
2019-05-13T09:40:42.374Z,241.87
2019-05-13T09:41:44.413Z,241.87
2019-05-13T09:42:50.952Z,241.87
2019-05-13T09:44:06.596Z,241.87
2019-05-13T09:45:06.582Z,236.25
2019-05-13T09:46:06.585Z,230.62
2019-05-13T09:47:06.564Z,230.62
2019-05-13T09:48:06.553Z,241.87
2019-05-13T09:49:15.710Z,241.87
2019-05-13T09:50:35.369Z,241.87
2019-05-13T09:51:32.367Z,241.87
2019-05-13T09:52:32.025Z,241.87
2019-05-13T09:53:32.531Z,241.87
2019-05-13T09:54:32.954Z,241.87
2019-05-13T09:55:32.551Z,247.50
2019-05-13T09:56:32.050Z,247.50
2019-05-13T09:57:32.180Z,253.12
2019-05-13T09:58:33.132Z,253.12
2019-05-13T09:59:31.997Z,258.75
2019-05-13T10:00:32.322Z,264.37
2019-05-13T10:01:32.079Z,258.75
2019-05-13T10:02:32.049Z,258.75
2019-05-13T10:03:33.070Z,258.75
2019-05-13T10:04:31.975Z,258.75
2019-05-13T10:05:31.735Z,258.75
2019-05-13T10:06:32.675Z,258.75
2019-05-13T10:07:31.947Z,258.75
2019-05-13T10:08:32.679Z,253.12
2019-05-13T10:09:32.620Z,247.50
2019-05-13T10:10:31.850Z,241.87
2019-05-13T10:11:31.127Z,236.25
2019-05-13T10:12:31.962Z,236.25
2019-05-13T10:13:31.829Z,236.25
2019-05-13T10:14:32.636Z,241.87
2019-05-13T10:15:32.565Z,241.87
2019-05-13T10:16:31.444Z,241.87
2019-05-13T10:17:31.763Z,241.87
2019-05-13T10:18:32.607Z,236.25
2019-05-13T10:19:32.227Z,236.25
2019-05-13T10:20:32.225Z,230.62
2019-05-13T10:21:32.754Z,230.62
2019-05-13T10:22:31.922Z,230.62
2019-05-13T10:23:32.877Z,230.62
2019-05-13T10:24:32.731Z,230.62
2019-05-13T10:25:30.985Z,230.62
2019-05-13T10:26:32.018Z,225.00
2019-05-13T10:27:32.408Z,225.00
2019-05-13T10:28:31.920Z,225.00
2019-05-13T10:29:31.761Z,225.00
2019-05-13T10:30:32.168Z,225.00
2019-05-13T10:31:31.505Z,225.00
2019-05-13T10:32:32.442Z,225.00
2019-05-13T10:33:31.806Z,230.62
2019-05-13T10:34:32.166Z,230.62
2019-05-13T10:35:31.731Z,230.62
2019-05-13T10:36:30.917Z,230.62
2019-05-13T10:37:30.856Z,236.25
2019-05-13T10:38:32.465Z,236.25
2019-05-13T10:39:30.833Z,236.25
2019-05-13T10:40:32.669Z,236.25
2019-05-13T10:41:33.272Z,236.25
2019-05-13T10:42:30.850Z,241.87
2019-05-13T10:43:31.845Z,241.87
2019-05-13T10:44:30.780Z,241.87
2019-05-13T10:45:33.247Z,241.87
2019-05-13T10:46:32.111Z,241.87
2019-05-13T10:47:30.753Z,241.87
2019-05-13T10:48:30.788Z,236.25
2019-05-13T10:49:33.191Z,236.25
2019-05-13T10:50:31.712Z,236.25
2019-05-13T10:51:32.621Z,236.25
2019-05-13T10:52:32.191Z,230.62
2019-05-13T10:53:32.130Z,230.62
2019-05-13T10:54:32.466Z,230.62
2019-05-13T10:55:32.234Z,230.62
2019-05-13T10:56:32.748Z,225.00
2019-05-13T10:57:31.899Z,225.00
2019-05-13T10:58:30.636Z,225.00
2019-05-13T10:59:30.620Z,225.00
2019-05-13T11:00:32.034Z,219.37
2019-05-13T11:01:32.783Z,219.37
2019-05-13T11:02:32.610Z,219.37
2019-05-13T11:03:32.927Z,219.37
2019-05-13T11:04:32.719Z,213.75
2019-05-13T11:05:32.638Z,213.75
2019-05-13T11:06:32.545Z,213.75
2019-05-13T11:07:32.085Z,208.12
2019-05-13T11:08:33.089Z,208.12
2019-05-13T11:09:32.534Z,208.12
2019-05-13T11:10:32.591Z,208.12
2019-05-13T11:11:33.029Z,208.12
2019-05-13T11:12:30.531Z,202.50
2019-05-13T11:13:47.869Z,202.50
2019-05-13T11:14:32.337Z,202.50
2019-05-13T11:15:32.856Z,202.50
2019-05-13T11:16:55.248Z,202.50
2019-05-13T11:17:55.388Z,202.50
2019-05-13T11:18:55.226Z,208.12
2019-05-13T11:19:55.217Z,208.12
2019-05-13T11:20:55.204Z,208.12
2019-05-13T11:21:55.195Z,208.12
2019-05-13T11:22:55.183Z,208.12
2019-05-13T11:23:55.238Z,208.12
2019-05-13T11:24:55.182Z,213.75
2019-05-13T11:25:55.149Z,213.75
2019-05-13T11:26:55.138Z,213.75
2019-05-13T11:28:57.167Z,213.75
2019-05-13T11:29:55.106Z,213.75
2019-05-13T11:30:59.534Z,213.75
2019-05-13T11:31:55.087Z,213.75
2019-05-13T11:32:55.094Z,219.37
2019-05-13T11:33:55.064Z,219.37
2019-05-13T11:34:55.103Z,225.00
2019-05-13T11:35:55.040Z,225.00
2019-05-13T11:36:55.030Z,225.00
2019-05-13T11:37:55.019Z,225.00
2019-05-13T11:38:55.007Z,225.00
2019-05-13T11:39:54.993Z,225.00
2019-05-13T11:40:55.035Z,225.00
2019-05-13T11:41:54.973Z,219.37
2019-05-13T11:42:54.970Z,219.37
2019-05-13T11:44:12.043Z,219.37
2019-05-13T11:45:22.364Z,213.75
2019-05-13T11:46:22.598Z,213.75
2019-05-13T11:47:19.730Z,208.12
2019-05-13T11:48:19.722Z,208.12
2019-05-13T11:49:19.714Z,208.12
2019-05-13T11:50:21.578Z,208.12
2019-05-13T11:51:19.691Z,202.50
2019-05-13T11:52:22.163Z,202.50
2019-05-13T11:53:33.192Z,196.87
2019-05-13T11:54:22.326Z,196.87
2019-05-13T11:55:22.932Z,196.87
2019-05-13T11:56:22.728Z,191.25
2019-05-13T11:57:19.626Z,191.25
2019-05-13T11:58:19.712Z,191.25
2019-05-13T11:59:22.066Z,191.25
2019-05-13T12:00:19.588Z,191.25
2019-05-13T12:01:22.626Z,191.25
2019-05-13T12:02:23.246Z,185.62
2019-05-13T12:03:22.691Z,185.62
2019-05-13T12:04:23.293Z,185.62
2019-05-13T12:05:22.237Z,185.62
2019-05-13T12:06:22.847Z,185.62
2019-05-13T12:07:22.957Z,185.62
2019-05-13T12:08:22.472Z,185.62
2019-05-13T12:09:22.024Z,185.62
2019-05-13T12:10:22.623Z,185.62
2019-05-13T12:11:21.711Z,185.62
2019-05-13T12:12:19.461Z,180.00
2019-05-13T12:13:19.450Z,180.00
2019-05-13T12:14:39.107Z,180.00
2019-05-13T12:15:49.457Z,180.00
2019-05-13T12:16:44.230Z,180.00
2019-05-13T12:17:44.219Z,180.00
2019-05-13T12:18:44.208Z,174.37
2019-05-13T12:19:44.197Z,174.37
2019-05-13T12:20:44.184Z,174.37
2019-05-13T12:21:46.627Z,174.37
2019-05-13T12:22:44.163Z,174.37
2019-05-13T12:23:44.154Z,168.75
2019-05-13T12:24:44.145Z,168.75
2019-05-13T12:25:44.159Z,168.75
2019-05-13T12:26:44.121Z,168.75
2019-05-13T12:27:44.158Z,163.12
2019-05-13T12:28:44.100Z,163.12
2019-05-13T12:29:44.093Z,163.12
2019-05-13T12:30:44.077Z,163.12
2019-05-13T12:31:44.068Z,163.12
2019-05-13T12:32:44.059Z,163.12
2019-05-13T12:33:44.257Z,157.50
2019-05-13T12:34:45.881Z,157.50
2019-05-13T12:35:44.056Z,151.87
2019-05-13T12:36:44.015Z,151.87
2019-05-13T12:37:44.003Z,146.25
2019-05-13T12:38:44.448Z,146.25
2019-05-13T12:39:44.254Z,140.62
2019-05-13T12:40:43.972Z,140.62
2019-05-13T12:41:43.963Z,140.62